Time;durP1;ratioP1;P1;durP2;ratioP2;P2;SDS_P1;SDS_P2;PMS_P1;PMS_P2;Temp;Humidity;BMP_temperature;BMP_pressure;BME280_temperature;BME280_humidity;BME280_pressure;Samples;Min_cycle;Max_cycle;Signal;HPM_P1;HPM_P2
2023/10/07 00:01:45;;;;;;;9.52;4.72;;;16.40;85.00;;;;;;5071822;28;20451;-75
2023/10/07 00:04:14;;;;;;;11.55;5.53;;;16.40;84.80;;;;;;5053100;28;20401;-75
2023/10/07 00:06:41;;;;;;;11.25;5.05;;;16.50;85.00;;;;;;5069721;28;20119;-74
2023/10/07 00:09:10;;;;;;;11.00;4.57;;;16.40;85.00;;;;;;5050948;28;20049;-74
2023/10/07 00:11:37;;;;;;;10.90;4.68;;;16.50;84.30;;;;;;5046023;28;20041;-74
2023/10/07 00:14:09;;;;;;;15.73;5.05;;;16.60;83.80;;;;;;5042913;28;20047;-74
2023/10/07 00:16:38;;;;;;;7.93;3.88;;;16.60;83.60;;;;;;5050442;28;20400;-76
2023/10/07 00:19:07;;;;;;;7.60;3.80;;;16.30;83.70;;;;;;5070573;28;20037;-74
2023/10/07 00:21:59;;;;;;;14.60;7.82;;;16.30;84.80;;;;;;5063653;28;20374;-73
2023/10/07 00:24:35;;;;;;;14.10;8.00;;;16.20;86.90;;;;;;5069683;28;20103;-72
2023/10/07 00:27:02;;;;;;;17.80;8.93;;;16.20;87.50;;;;;;5067101;28;20400;-73
2023/10/07 00:29:39;;;;;;;22.20;10.77;;;16.10;87.70;;;;;;5070636;28;20036;-75
2023/10/07 00:32:07;;;;;;;31.50;14.07;;;16.00;88.70;;;;;;5067395;28;20033;-74
2023/10/07 00:34:38;;;;;;;29.40;14.85;;;15.90;88.90;;;;;;5070995;28;20041;-73
2023/10/07 00:37:06;;;;;;;27.23;15.93;;;15.90;89.40;;;;;;5070091;28;20037;-72
2023/10/07 00:39:33;;;;;;;30.40;15.23;;;15.90;89.10;;;;;;5073363;28;20040;-73
2023/10/07 00:42:07;;;;;;;35.58;18.10;;;16.00;88.90;;;;;;5090263;28;20043;-73
2023/10/07 00:44:35;;;;;;;25.70;13.93;;;15.90;89.10;;;;;;5069308;28;20054;-73
2023/10/07 00:49:40;;;;;;;34.95;15.80;;;15.80;89.20;;;;;;5090152;28;20055;-71
2023/10/07 00:52:14;;;;;;;33.13;15.75;;;15.80;89.30;;;;;;5089718;28;20036;-72
2023/10/07 00:54:50;;;;;;;35.63;19.08;;;15.70;90.00;;;;;;5073047;28;20055;-73
2023/10/07 00:57:34;;;;;;;37.35;20.45;;;15.70;90.00;;;;;;5090143;28;20078;-73
2023/10/07 01:03:06;;;;;;;30.45;18.33;;;15.50;90.30;;;;;;5089544;28;20166;-74
2023/10/07 01:05:35;;;;;;;35.90;17.97;;;15.40;90.70;;;;;;5088508;28;20097;-73
2023/10/07 01:08:06;;;;;;;31.52;17.60;;;15.20;91.30;;;;;;5072393;28;20130;-73
2023/10/07 01:10:38;;;;;;;30.48;16.85;;;14.90;92.00;;;;;;5089168;28;20067;-72
2023/10/07 01:13:24;;;;;;;36.38;17.92;;;15.00;92.00;;;;;;5089778;28;20047;-73
2023/10/07 01:15:53;;;;;;;27.88;15.20;;;15.10;91.90;;;;;;5089266;28;20044;-72
2023/10/07 01:18:21;;;;;;;29.95;15.38;;;15.20;91.40;;;;;;5090465;28;20040;-72
2023/10/07 01:23:24;;;;;;;31.58;17.33;;;15.20;91.50;;;;;;5090160;28;20036;-72
2023/10/07 01:25:51;;;;;;;33.58;17.05;;;15.10;91.60;;;;;;5090385;28;20047;-72
2023/10/07 01:28:20;;;;;;;30.27;15.93;;;15.20;91.70;;;;;;5089371;28;20032;-74
2023/10/07 01:33:39;;;;;;;29.58;16.73;;;14.90;92.00;;;;;;5090088;28;20036;-73
2023/10/07 01:38:40;;;;;;;28.60;15.68;;;15.00;92.10;;;;;;5090026;28;20396;-73
2023/10/07 01:41:14;;;;;;;34.45;15.85;;;14.80;92.40;;;;;;5086670;28;20052;-73
2023/10/07 01:43:42;;;;;;;34.78;16.83;;;15.00;92.70;;;;;;5089170;28;20040;-73
2023/10/07 01:46:10;;;;;;;31.52;15.23;;;14.90;92.60;;;;;;5089973;28;20036;-73
2023/10/07 01:48:38;;;;;;;32.60;15.77;;;15.00;92.60;;;;;;5072032;28;20036;-73
2023/10/07 01:51:05;;;;;;;35.20;14.05;;;15.00;92.60;;;;;;5089794;28;20459;-73
2023/10/07 01:53:32;;;;;;;34.67;14.10;;;15.00;92.60;;;;;;5089093;28;20650;-72
2023/10/07 01:56:04;;;;;;;23.75;11.93;;;14.90;92.80;;;;;;5055123;28;20050;-73
2023/10/07 01:58:32;;;;;;;20.58;12.18;;;15.00;92.80;;;;;;5085832;28;20488;-72
2023/10/07 02:00:59;;;;;;;22.95;11.38;;;14.80;92.80;;;;;;5088832;28;20063;-73
2023/10/07 02:03:26;;;;;;;23.80;11.07;;;14.70;92.90;;;;;;5089735;28;20044;-72
2023/10/07 02:05:54;;;;;;;28.67;11.40;;;14.70;93.00;;;;;;5089512;28;20040;-74
2023/10/07 02:08:23;;;;;;;21.40;10.73;;;14.70;93.10;;;;;;5071929;28;20123;-73
2023/10/07 02:10:58;;;;;;;21.42;10.75;;;14.60;93.50;;;;;;5089808;28;20425;-74
2023/10/07 02:13:29;;;;;;;26.50;9.43;;;14.70;93.20;;;;;;5071389;28;20043;-73
2023/10/07 02:15:57;;;;;;;21.52;9.93;;;14.80;93.20;;;;;;5089460;28;20056;-73
2023/10/07 02:18:27;;;;;;;20.25;10.45;;;14.80;93.20;;;;;;5071636;28;20123;-72
2023/10/07 02:21:07;;;;;;;17.05;9.23;;;14.90;93.20;;;;;;5089463;28;20466;-72
2023/10/07 02:23:40;;;;;;;25.77;11.23;;;14.90;93.20;;;;;;5085116;28;20390;-74
2023/10/07 02:26:19;;;;;;;26.67;11.38;;;14.80;93.20;;;;;;5085912;28;20646;-72
2023/10/07 02:28:51;;;;;;;25.05;10.63;;;14.60;93.60;;;;;;5088878;28;20036;-72
2023/10/07 02:31:21;;;;;;;21.60;10.45;;;14.30;94.40;;;;;;5089352;28;20036;-73
2023/10/07 02:33:57;;;;;;;25.35;11.73;;;14.40;94.60;;;;;;5089241;28;20502;-72
2023/10/07 02:36:37;;;;;;;31.17;13.00;;;14.20;94.50;;;;;;5089409;28;20070;-73
2023/10/07 02:39:26;;;;;;;30.23;14.57;;;14.20;94.80;;;;;;5089286;28;20036;-73
2023/10/07 02:41:54;;;;;;;29.63;13.40;;;14.20;94.80;;;;;;5070664;28;20049;-72
2023/10/07 02:44:30;;;;;;;25.73;13.02;;;14.20;95.00;;;;;;5072490;28;20456;-72
2023/10/07 02:46:57;;;;;;;28.45;12.73;;;14.30;95.10;;;;;;5042604;28;20125;-72
2023/10/07 02:49:25;;;;;;;25.80;12.60;;;14.10;95.20;;;;;;5071641;28;20084;-71
2023/10/07 02:51:56;;;;;;;24.60;11.35;;;14.00;95.60;;;;;;5063577;28;20052;-71
2023/10/07 02:54:31;;;;;;;29.98;13.40;;;14.00;95.60;;;;;;5068141;28;20039;-73
2023/10/07 02:59:50;;;;;;;32.67;12.77;;;14.00;95.60;;;;;;5068298;28;20055;-72
2023/10/07 03:07:41;;;;;;;26.45;12.27;;;14.10;96.00;;;;;;5069875;28;20051;-72
2023/10/07 03:10:18;;;;;;;21.77;10.55;;;14.10;96.00;;;;;;5068953;28;20498;-72
2023/10/07 03:13:01;;;;;;;22.73;12.02;;;14.00;96.20;;;;;;5074365;28;20032;-72
2023/10/07 03:18:03;;;;;;;24.25;11.98;;;14.10;96.60;;;;;;5079527;28;20040;-72
2023/10/07 03:20:31;;;;;;;25.83;11.55;;;14.10;96.60;;;;;;5073823;28;20032;-71
2023/10/07 03:23:19;;;;;;;22.10;11.93;;;14.10;96.40;;;;;;5074239;28;20056;-73
2023/10/07 03:28:21;;;;;;;23.73;12.40;;;13.70;97.60;;;;;;5074200;28;20393;-73
2023/10/07 03:30:51;;;;;;;24.98;12.38;;;13.60;97.60;;;;;;5075937;28;20128;-72
2023/10/07 03:33:32;;;;;;;23.90;12.60;;;13.60;97.70;;;;;;5075392;28;20032;-73
2023/10/07 03:38:29;;;;;;;23.27;10.88;;;13.50;97.80;;;;;;5078120;28;20055;-74
2023/10/07 03:40:56;;;;;;;24.27;12.55;;;13.20;98.10;;;;;;5085963;28;20087;-74
2023/10/07 03:43:26;;;;;;;20.45;10.63;;;13.30;98.00;;;;;;5091617;28;20040;-75
2023/10/07 03:45:57;;;;;;;19.95;10.05;;;13.50;98.00;;;;;;5091815;28;20048;-73
2023/10/07 03:48:24;;;;;;;21.92;10.63;;;13.60;97.50;;;;;;5091507;28;20040;-75
2023/10/07 03:51:08;;;;;;;23.83;10.20;;;13.50;97.50;;;;;;5073995;28;20040;-72
2023/10/07 03:53:45;;;;;;;21.58;10.50;;;13.50;97.70;;;;;;5091519;28;20028;-72
2023/10/07 03:56:14;;;;;;;21.00;10.52;;;13.50;97.70;;;;;;5088280;28;20071;-75
2023/10/07 03:58:43;;;;;;;19.95;10.40;;;13.50;98.20;;;;;;5091573;28;20475;-72
2023/10/07 04:01:16;;;;;;;18.48;9.25;;;13.30;98.50;;;;;;5091113;28;20044;-74
2023/10/07 04:03:59;;;;;;;19.27;11.07;;;13.30;98.60;;;;;;5091377;28;20036;-72
2023/10/07 04:06:36;;;;;;;19.15;9.00;;;13.20;98.80;;;;;;5091274;28;20048;-72
2023/10/07 04:09:07;;;;;;;19.33;7.95;;;13.20;99.20;;;;;;5091086;28;20032;-72
2023/10/07 04:11:39;;;;;;;15.02;8.95;;;13.20;99.20;;;;;;5073304;28;20051;-73
2023/10/07 04:14:27;;;;;;;15.05;7.85;;;13.40;99.20;;;;;;5087243;28;20392;-71
2023/10/07 04:16:59;;;;;;;14.10;7.85;;;13.50;98.90;;;;;;5071611;28;20536;-72
2023/10/07 04:21:58;;;;;;;16.70;8.50;;;13.40;99.20;;;;;;5090991;28;20064;-71
2023/10/07 04:24:28;;;;;;;15.73;7.95;;;13.30;99.30;;;;;;5091228;28;20476;-73
2023/10/07 04:27:03;;;;;;;16.35;8.25;;;13.30;99.70;;;;;;5090934;28;20388;-72
2023/10/07 04:29:31;;;;;;;18.25;8.07;;;13.40;99.70;;;;;;5073465;28;20442;-72
2023/10/07 04:32:11;;;;;;;17.90;8.10;;;13.30;99.80;;;;;;5090653;28;20039;-72
2023/10/07 04:35:00;;;;;;;15.40;7.60;;;13.30;99.90;;;;;;5073431;28;20048;-72
2023/10/07 04:37:43;;;;;;;24.38;9.75;;;13.30;99.90;;;;;;5089334;28;20110;-74
2023/10/07 04:42:51;;;;;;;41.13;19.83;;;13.10;99.90;;;;;;5070160;28;20028;-73
2023/10/07 04:45:24;;;;;;;44.13;20.98;;;13.00;99.90;;;;;;5043292;28;20056;-73
2023/10/07 04:47:57;;;;;;;41.33;19.40;;;13.00;99.90;;;;;;5062362;28;20807;-73
2023/10/07 04:50:33;;;;;;;42.88;18.63;;;13.00;99.90;;;;;;5069278;28;20119;-72
2023/10/07 04:53:03;;;;;;;36.10;17.40;;;13.00;99.90;;;;;;5052219;28;20427;-73
2023/10/07 04:55:32;;;;;;;35.00;14.95;;;12.90;99.90;;;;;;5070781;28;20397;-75
2023/10/07 04:58:02;;;;;;;25.67;13.50;;;12.80;99.90;;;;;;5069823;28;20028;-75
2023/10/07 05:03:03;;;;;;;22.35;11.50;;;13.00;99.90;;;;;;5065362;28;20029;-75
2023/10/07 05:05:33;;;;;;;18.65;10.40;;;13.00;99.90;;;;;;5063429;28;20044;-74
2023/10/07 05:08:11;;;;;;;17.20;10.50;;;13.10;99.90;;;;;;5048153;28;20041;-75
2023/10/07 05:10:41;;;;;;;25.05;10.95;;;12.90;99.90;;;;;;5070463;28;20040;-72
2023/10/07 05:13:10;;;;;;;21.08;9.90;;;13.00;99.90;;;;;;5064761;28;20052;-76
2023/10/07 05:15:41;;;;;;;24.40;11.10;;;13.00;99.90;;;;;;5048674;28;20040;-73
2023/10/07 05:18:13;;;;;;;18.65;10.07;;;13.00;99.90;;;;;;5066189;28;20033;-74
2023/10/07 05:20:41;;;;;;;16.65;9.30;;;13.10;99.90;;;;;;5066638;28;20048;-72
2023/10/07 05:23:14;;;;;;;19.40;8.93;;;13.20;99.90;;;;;;5069553;28;20036;-74
2023/10/07 05:26:03;;;;;;;16.30;9.00;;;13.20;99.90;;;;;;5066659;28;20047;-75
2023/10/07 05:28:32;;;;;;;13.32;8.23;;;13.30;99.90;;;;;;5069780;28;20388;-73
2023/10/07 05:31:03;;;;;;;14.43;8.88;;;13.30;99.90;;;;;;5069853;28;20060;-73
2023/10/07 05:33:35;;;;;;;20.27;8.93;;;13.40;99.90;;;;;;5051713;28;20129;-74
2023/10/07 05:36:14;;;;;;;20.00;9.65;;;13.40;99.90;;;;;;5069589;28;20626;-74
2023/10/07 05:38:44;;;;;;;17.10;9.00;;;13.40;99.90;;;;;;5066892;28;20047;-74
2023/10/07 05:41:12;;;;;;;15.70;9.45;;;13.40;99.90;;;;;;5086053;28;20044;-73
2023/10/07 05:43:43;;;;;;;16.67;8.85;;;13.50;99.90;;;;;;5089407;28;20518;-73
2023/10/07 05:46:11;;;;;;;14.73;8.80;;;13.50;99.90;;;;;;5086309;28;20032;-75
2023/10/07 05:48:42;;;;;;;16.98;9.10;;;13.60;99.90;;;;;;5089623;28;20380;-75
2023/10/07 05:51:09;;;;;;;20.08;8.10;;;13.70;99.90;;;;;;5086284;28;20063;-74
2023/10/07 05:53:48;;;;;;;14.23;8.05;;;13.80;99.90;;;;;;5086273;28;20113;-75
2023/10/07 05:56:15;;;;;;;18.60;8.63;;;13.80;99.90;;;;;;5086454;28;20031;-73
2023/10/07 05:58:48;;;;;;;23.10;7.97;;;13.90;99.90;;;;;;5089982;28;20040;-74
2023/10/07 06:01:16;;;;;;;16.40;7.45;;;14.00;99.90;;;;;;5089466;28;20089;-74
2023/10/07 06:03:46;;;;;;;19.20;8.65;;;14.10;99.90;;;;;;5089901;28;20047;-73
2023/10/07 06:06:14;;;;;;;14.33;7.73;;;14.00;99.90;;;;;;5089563;28;20127;-73
2023/10/07 06:08:42;;;;;;;16.92;8.10;;;14.20;99.90;;;;;;5089642;28;20032;-75
2023/10/07 06:11:10;;;;;;;15.38;8.63;;;14.20;99.90;;;;;;5086821;28;20047;-74
2023/10/07 06:13:40;;;;;;;21.35;9.70;;;14.20;99.90;;;;;;5050781;28;20044;-75
2023/10/07 06:16:08;;;;;;;23.05;10.23;;;14.20;99.90;;;;;;5073144;28;20036;-74
2023/10/07 06:18:36;;;;;;;20.20;10.55;;;14.30;99.90;;;;;;5075794;28;20048;-75
2023/10/07 06:21:27;;;;;;;30.75;12.07;;;14.20;99.90;;;;;;5075742;28;20048;-76
2023/10/07 06:24:07;;;;;;;23.30;12.82;;;14.40;99.90;;;;;;5074006;28;20070;-73
2023/10/07 06:26:35;;;;;;;31.77;14.00;;;14.50;99.90;;;;;;5075730;28;20125;-72
2023/10/07 06:29:18;;;;;;;40.60;15.27;;;14.60;99.90;;;;;;5093272;28;20036;-75
2023/10/07 06:31:55;;;;;;;30.10;13.02;;;14.70;99.90;;;;;;5090507;28;20043;-73
2023/10/07 06:34:26;;;;;;;27.38;12.95;;;14.80;99.60;;;;;;5093799;28;20040;-75
2023/10/07 06:36:54;;;;;;;16.45;9.80;;;14.90;99.70;;;;;;5090274;28;20033;-73
2023/10/07 06:39:27;;;;;;;25.45;9.75;;;14.90;99.30;;;;;;5075141;28;20040;-71
2023/10/07 06:42:12;;;;;;;16.77;9.52;;;14.70;99.50;;;;;;5092200;28;20032;-73
2023/10/07 06:44:39;;;;;;;19.05;9.25;;;14.80;99.40;;;;;;5089189;28;20081;-73
2023/10/07 06:47:10;;;;;;;24.63;9.70;;;14.80;99.30;;;;;;5092871;28;20039;-72
2023/10/07 06:49:39;;;;;;;19.73;8.07;;;14.70;99.60;;;;;;5089413;28;20054;-73
2023/10/07 06:52:07;;;;;;;18.95;8.05;;;14.80;99.40;;;;;;5093074;28;20044;-74
2023/10/07 06:54:34;;;;;;;17.55;7.95;;;14.80;99.40;;;;;;5093042;28;20115;-75
2023/10/07 06:57:04;;;;;;;17.83;7.90;;;14.80;99.70;;;;;;5092335;28;20399;-74
2023/10/07 06:59:31;;;;;;;16.45;8.02;;;15.00;99.50;;;;;;5075298;28;20043;-72
2023/10/07 07:02:10;;;;;;;20.38;9.23;;;15.10;99.20;;;;;;5074877;28;20498;-74
2023/10/07 07:04:41;;;;;;;17.80;9.38;;;15.20;99.00;;;;;;5072594;28;20563;-74
2023/10/07 07:07:13;;;;;;;15.95;8.20;;;15.30;98.80;;;;;;5084300;28;20479;-75
2023/10/07 07:09:41;;;;;;;16.52;7.78;;;15.40;98.70;;;;;;5073516;28;20043;-73
2023/10/07 07:12:10;;;;;;;16.35;8.05;;;15.40;98.50;;;;;;5092808;28;20461;-73
2023/10/07 07:14:51;;;;;;;18.05;8.05;;;15.50;99.20;;;;;;5092837;28;20032;-73
2023/10/07 07:17:29;;;;;;;17.77;8.43;;;15.70;98.80;;;;;;5089744;28;20047;-72
2023/10/07 07:22:46;;;;;;;12.48;6.97;;;15.70;99.10;;;;;;5092472;28;20361;-75
2023/10/07 07:27:58;;;;;;;14.32;6.80;;;15.50;99.10;;;;;;5090877;28;20036;-75
2023/10/07 07:30:31;;;;;;;17.92;7.88;;;15.90;98.30;;;;;;5092466;28;20047;-75
2023/10/07 07:33:07;;;;;;;14.38;7.07;;;16.10;97.90;;;;;;5089367;28;20036;-74
2023/10/07 07:35:40;;;;;;;82.82;45.78;;;15.90;98.00;;;;;;5088384;28;20039;-75
2023/10/07 07:41:09;;;;;;;28.95;18.10;;;16.50;97.20;;;;;;5085148;28;20043;-74
2023/10/07 07:43:41;;;;;;;18.40;9.48;;;16.90;96.50;;;;;;5073831;28;20173;-77
2023/10/07 07:48:45;;;;;;;13.82;7.78;;;17.30;95.60;;;;;;5088577;28;20048;-76
2023/10/07 07:51:20;;;;;;;16.77;8.60;;;17.40;95.10;;;;;;5086537;28;20042;-75
2023/10/07 07:53:48;;;;;;;12.82;7.00;;;17.50;94.80;;;;;;5068611;28;20038;-77
2023/10/07 07:56:15;;;;;;;14.60;7.68;;;17.00;95.30;;;;;;5086894;28;20072;-78
2023/10/07 07:58:48;;;;;;;14.40;6.65;;;17.00;95.10;;;;;;5072709;28;20411;-75
2023/10/07 08:01:28;;;;;;;14.90;7.70;;;17.10;94.80;;;;;;5086084;28;20053;-74
2023/10/07 08:03:59;;;;;;;17.10;7.28;;;17.30;95.20;;;;;;5072433;28;20036;-74
2023/10/07 08:06:27;;;;;;;14.25;7.30;;;17.90;94.30;;;;;;5088339;28;20394;-76
2023/10/07 08:08:55;;;;;;;11.90;6.43;;;18.00;93.70;;;;;;5087226;28;20046;-72
2023/10/07 08:11:22;;;;;;;15.10;7.32;;;18.30;93.40;;;;;;5073660;28;20036;-78
2023/10/07 08:13:50;;;;;;;11.95;6.80;;;18.50;92.80;;;;;;5092470;28;20111;-77
2023/10/07 08:16:20;;;;;;;12.77;6.50;;;18.40;92.20;;;;;;5089181;28;20582;-76
2023/10/07 08:18:56;;;;;;;14.52;6.75;;;18.60;92.20;;;;;;5073790;28;20044;-75
2023/10/07 08:21:29;;;;;;;15.23;6.30;;;18.80;92.10;;;;;;5085627;28;20032;-75
2023/10/07 08:24:01;;;;;;;15.55;6.70;;;18.90;91.70;;;;;;5089792;28;20559;-75
2023/10/07 08:26:34;;;;;;;11.43;5.85;;;18.90;91.10;;;;;;5091269;28;20077;-75
2023/10/07 08:29:03;;;;;;;13.43;6.45;;;19.20;91.40;;;;;;5091069;28;20090;-76
2023/10/07 08:31:39;;;;;;;15.15;6.22;;;19.20;90.40;;;;;;5072697;28;20048;-75
2023/10/07 08:36:37;;;;;;;14.50;5.93;;;19.30;90.40;;;;;;5089968;28;20028;-75
2023/10/07 08:39:11;;;;;;;9.45;6.10;;;19.60;90.10;;;;;;5089179;28;20076;-77
2023/10/07 08:41:40;;;;;;;34.97;7.75;;;19.40;90.00;;;;;;5089354;28;20052;-74
2023/10/07 08:44:16;;;;;;;9.40;5.68;;;19.50;89.90;;;;;;5072158;28;20040;-75
2023/10/07 08:46:54;;;;;;;11.50;5.70;;;19.70;89.70;;;;;;5086007;28;20132;-77
2023/10/07 08:49:26;;;;;;;12.32;6.05;;;19.90;89.10;;;;;;5087926;28;20437;-77
2023/10/07 08:51:55;;;;;;;13.23;6.28;;;20.00;88.10;;;;;;5090429;28;20349;-77
2023/10/07 08:54:26;;;;;;;13.68;6.05;;;20.00;87.90;;;;;;5071946;28;20036;-77
2023/10/07 08:56:58;;;;;;;13.15;6.65;;;20.20;87.20;;;;;;5090647;28;20032;-75
2023/10/07 08:59:33;;;;;;;10.32;6.30;;;20.20;86.80;;;;;;5073107;28;20054;-77
2023/10/07 09:02:01;;;;;;;10.82;5.78;;;20.30;86.10;;;;;;5090597;28;20054;-76
2023/10/07 09:04:34;;;;;;;12.45;5.57;;;20.50;84.80;;;;;;5071620;28;20496;-77
2023/10/07 09:07:08;;;;;;;12.40;5.68;;;20.60;85.10;;;;;;5090367;28;20044;-76
2023/10/07 09:09:43;;;;;;;13.48;6.05;;;20.70;83.90;;;;;;5090646;28;20124;-77
2023/10/07 09:12:14;;;;;;;13.00;6.47;;;20.90;82.80;;;;;;5083556;28;20044;-75
2023/10/07 09:14:57;;;;;;;11.38;5.85;;;20.70;83.30;;;;;;5068855;28;20028;-77
2023/10/07 09:17:28;;;;;;;9.77;5.50;;;20.90;82.60;;;;;;5071099;28;20451;-76
2023/10/07 09:20:01;;;;;;;15.90;9.57;;;20.90;82.60;;;;;;5091247;28;20036;-76
2023/10/07 09:22:35;;;;;;;52.50;31.50;;;21.10;82.30;;;;;;5090304;28;20097;-75
2023/10/07 09:25:17;;;;;;;33.85;22.25;;;21.30;81.90;;;;;;5084936;28;20430;-77
2023/10/07 09:27:56;;;;;;;15.55;8.38;;;21.50;80.10;;;;;;5087003;28;20365;-75
2023/10/07 09:33:17;;;;;;;10.77;5.70;;;21.40;80.50;;;;;;5089612;28;20118;-76
2023/10/07 09:38:41;;;;;;;12.18;5.90;;;21.60;79.40;;;;;;5089016;28;20043;-74
2023/10/07 09:41:12;;;;;;;10.65;5.97;;;21.60;78.70;;;;;;5067689;28;20488;-73
2023/10/07 09:43:51;;;;;;;10.63;4.82;;;21.70;78.10;;;;;;5068918;28;20048;-75
2023/10/07 09:46:24;;;;;;;9.98;4.95;;;21.90;77.20;;;;;;5085340;28;20816;-75
2023/10/07 09:48:58;;;;;;;54.63;35.05;;;21.50;77.80;;;;;;5067732;28;20044;-76
2023/10/07 09:51:34;;;;;;;;;;;21.70;78.00;;;;;;5070947;28;20151;-74
2023/10/07 09:54:22;;;;;;;35.33;8.60;;;21.90;77.00;;;;;;5088000;28;19920;-76
2023/10/07 09:57:22;;;;;;;12.38;5.80;;;22.00;76.60;;;;;;5090128;28;20407;-75
2023/10/07 10:03:29;;;;;;;79.75;9.60;;;22.30;75.40;;;;;;5086497;28;20040;-77
2023/10/07 10:06:29;;;;;;;32.35;6.38;;;22.20;75.30;;;;;;5080571;28;20036;-76
2023/10/07 10:08:58;;;;;;;13.98;4.60;;;22.40;75.20;;;;;;5086061;28;20047;-78
2023/10/07 10:14:29;;;;;;;10.27;4.60;;;23.00;75.10;;;;;;5086772;28;20051;-75
2023/10/07 10:17:00;;;;;;;11.00;4.53;;;23.10;77.00;;;;;;5083840;28;20044;-73
2023/10/07 10:19:44;;;;;;;6.82;3.50;;;22.80;78.00;;;;;;5069189;28;20048;-75
2023/10/07 10:22:12;;;;;;;10.80;4.18;;;22.70;73.00;;;;;;5078474;28;20036;-78
2023/10/07 10:24:44;;;;;;;8.77;4.65;;;23.10;72.00;;;;;;5068096;28;20112;-74
2023/10/07 10:27:13;;;;;;;9.15;3.88;;;23.30;76.50;;;;;;5086292;28;20040;-74
2023/10/07 10:30:04;;;;;;;8.93;3.42;;;22.80;71.40;;;;;;5071974;28;20032;-76
2023/10/07 10:32:36;;;;;;;9.43;5.28;;;23.00;71.70;;;;;;5076465;28;20060;-73
2023/10/07 10:35:06;;;;;;;22.10;14.90;;;23.50;73.80;;;;;;5084473;28;20153;-78
2023/10/07 10:37:37;;;;;;;16.27;10.25;;;23.30;69.90;;;;;;5066830;28;20048;-73
2023/10/07 10:40:14;;;;;;;6.88;3.97;;;23.10;69.70;;;;;;5085363;28;20105;-70
2023/10/07 10:42:43;;;;;;;8.25;3.60;;;23.20;70.00;;;;;;5083414;28;20044;-74
2023/10/07 10:45:20;;;;;;;6.20;3.45;;;23.20;69.60;;;;;;5084840;28;20048;-73
2023/10/07 10:47:52;;;;;;;6.63;3.90;;;23.30;70.30;;;;;;5059150;28;20086;-73
2023/10/07 10:50:28;;;;;;;7.40;4.00;;;23.30;70.20;;;;;;5066727;28;20056;-71
2023/10/07 10:52:59;;;;;;;8.85;3.88;;;23.40;74.30;;;;;;5059466;28;20492;-76
2023/10/07 10:55:38;;;;;;;7.22;3.90;;;23.50;68.30;;;;;;5079089;28;20033;-73
2023/10/07 10:58:17;;;;;;;10.80;4.75;;;23.40;72.50;;;;;;5083818;28;20048;-72
2023/10/07 11:00:49;;;;;;;8.93;4.07;;;24.00;72.10;;;;;;5084039;28;20032;-75
2023/10/07 11:03:20;;;;;;;8.80;4.00;;;24.10;67.60;;;;;;5073080;28;20044;-73
2023/10/07 11:05:52;;;;;;;8.65;3.90;;;24.10;67.00;;;;;;5089913;28;20033;-80
2023/10/07 11:08:28;;;;;;;9.05;4.28;;;23.90;67.20;;;;;;5084580;28;20299;-80
2023/10/07 11:11:00;;;;;;;7.35;4.00;;;24.40;65.70;;;;;;5072264;28;20044;-80
2023/10/07 11:13:37;;;;;;;7.43;4.03;;;24.50;65.60;;;;;;5057713;28;20053;-85
2023/10/07 11:16:11;;;;;;;9.63;4.43;;;24.60;64.70;;;;;;5071113;28;20526;-84
2023/10/07 11:18:43;;;;;;;9.00;4.90;;;24.70;63.90;;;;;;5077341;28;20067;-91
2023/10/07 11:21:18;;;;;;;11.82;5.20;;;24.70;64.00;;;;;;5096832;28;20070;-86
2023/10/07 11:23:46;;;;;;;9.85;4.38;;;25.10;65.10;;;;;;5096674;28;20476;-75
2023/10/07 11:26:14;;;;;;;9.07;3.80;;;27.30;65.20;;;;;;5090956;28;20044;-77
2023/10/07 11:28:43;;;;;;;8.77;4.50;;;29.00;57.80;;;;;;5073572;28;20403;-79
2023/10/07 11:31:10;;;;;;;10.95;4.20;;;30.50;57.60;;;;;;5086872;28;20086;-76
2023/10/07 11:33:51;;;;;;;10.93;4.70;;;31.50;52.60;;;;;;5091653;28;20048;-77
2023/10/07 11:36:19;;;;;;;8.10;4.85;;;32.00;51.70;;;;;;5092314;28;20446;-72
2023/10/07 11:38:46;;;;;;;8.95;4.65;;;32.60;50.10;;;;;;5073841;28;20059;-79
2023/10/07 11:41:16;;;;;;;10.30;4.65;;;31.60;50.00;;;;;;5089809;28;20305;-79
2023/10/07 11:43:44;;;;;;;9.02;5.15;;;29.00;51.30;;;;;;5087395;28;20105;-81
2023/10/07 11:46:13;;;;;;;56.90;38.00;;;27.40;55.30;;;;;;5062391;28;20045;-76
2023/10/07 11:48:44;;;;;;;15.55;10.23;;;26.40;55.80;;;;;;5097600;28;20040;-87
2023/10/07 11:51:12;;;;;;;19.67;13.75;;;25.80;55.90;;;;;;5081214;28;20476;-81
2023/10/07 11:53:41;;;;;;;11.27;6.95;;;26.10;58.00;;;;;;5095640;28;20113;-86
2023/10/07 11:56:11;;;;;;;;;;;26.30;58.20;;;;;;5090903;28;20048;-79
2023/10/07 11:58:46;;;;;;;10.27;5.35;;;26.10;55.20;;;;;;5061526;28;20401;-78
2023/10/07 12:01:13;;;;;;;14.60;5.15;;;26.10;55.20;;;;;;5093425;28;20040;-76
2023/10/07 12:03:43;;;;;;;10.35;5.05;;;26.10;57.30;;;;;;5093853;28;20051;-86
2023/10/07 12:06:11;;;;;;;11.88;5.75;;;26.60;57.60;;;;;;5079066;28;20103;-77
2023/10/07 12:08:41;;;;;;;12.20;5.97;;;27.00;58.50;;;;;;5081768;28;20044;-89
2023/10/07 12:11:08;;;;;;;10.18;5.65;;;27.00;55.50;;;;;;5094159;28;20115;-87
2023/10/07 12:13:35;;;;;;;14.25;6.35;;;27.00;56.30;;;;;;5094134;28;20036;-81
2023/10/07 12:16:03;;;;;;;10.73;5.80;;;26.60;54.80;;;;;;5095764;28;20047;-86
2023/10/07 12:18:32;;;;;;;13.73;7.47;;;26.60;56.30;;;;;;5098631;28;20066;-84
2023/10/07 12:21:01;;;;;;;13.50;7.47;;;26.70;54.60;;;;;;5089677;28;20029;-75
2023/10/07 12:23:33;;;;;;;12.55;7.10;;;26.60;55.90;;;;;;5075194;28;20131;-89
2023/10/07 12:26:01;;;;;;;13.02;6.93;;;27.00;58.30;;;;;;5070925;28;20033;-84
2023/10/07 12:28:30;;;;;;;12.75;7.65;;;27.00;55.90;;;;;;5091349;28;20045;-86
2023/10/07 12:30:58;;;;;;;12.52;6.53;;;27.30;56.70;;;;;;5095859;28;20044;-82
2023/10/07 12:33:26;;;;;;;11.68;6.80;;;27.60;55.40;;;;;;5092260;28;20058;-82
2023/10/07 12:36:15;;;;;;;10.70;5.97;;;28.00;57.10;;;;;;5097856;28;20044;-80
2023/10/07 12:38:42;;;;;;;18.20;12.80;;;28.30;54.70;;;;;;5097988;28;20048;-87
2023/10/07 12:41:12;;;;;;;28.90;18.75;;;28.40;55.00;;;;;;5079413;28;20055;-81
2023/10/07 12:43:40;;;;;;;15.40;10.40;;;28.20;54.10;;;;;;5088798;28;20385;-81
2023/10/07 12:46:28;;;;;;;14.60;8.02;;;28.00;51.60;;;;;;5089432;28;20526;-82
2023/10/07 12:48:55;;;;;;;12.95;8.20;;;27.90;51.50;;;;;;5087553;28;20365;-81
2023/10/07 12:51:23;;;;;;;12.30;7.45;;;27.70;51.40;;;;;;5074564;28;20683;-80
2023/10/07 12:53:54;;;;;;;15.40;8.70;;;28.10;50.20;;;;;;5082957;28;20040;-83
2023/10/07 12:56:22;;;;;;;15.77;8.43;;;28.40;49.60;;;;;;5085721;28;20075;-77
2023/10/07 12:58:51;;;;;;;14.10;7.55;;;28.70;52.50;;;;;;5091469;28;20179;-82
2023/10/07 13:01:19;;;;;;;13.88;7.95;;;28.90;53.10;;;;;;5093512;28;20118;-79
2023/10/07 13:04:04;;;;;;;14.60;7.35;;;28.90;52.30;;;;;;5091704;28;20032;-85
2023/10/07 13:06:32;;;;;;;15.10;8.50;;;28.30;48.80;;;;;;5086670;28;20076;-82
2023/10/07 13:09:03;;;;;;;14.70;8.02;;;28.30;49.40;;;;;;5071231;28;20105;-83
2023/10/07 13:11:30;;;;;;;13.65;9.07;;;28.10;49.00;;;;;;5095146;28;20040;-85
2023/10/07 13:13:58;;;;;;;16.70;9.52;;;28.10;49.20;;;;;;5055265;28;20123;-90
2023/10/07 13:16:25;;;;;;;15.05;9.00;;;27.90;47.50;;;;;;5083902;28;20086;-86
2023/10/07 13:18:54;;;;;;;13.65;8.98;;;28.10;47.10;;;;;;5087999;28;20044;-94
2023/10/07 13:21:25;;;;;;;14.85;8.55;;;28.40;49.20;;;;;;5071729;28;20391;-85
2023/10/07 13:23:52;;;;;;;39.17;28.60;;;28.70;48.30;;;;;;5064097;28;20091;-78
2023/10/07 13:26:20;;;;;;;26.83;18.65;;;28.80;46.70;;;;;;5089081;28;20464;-84
2023/10/07 13:28:48;;;;;;;21.20;14.93;;;29.00;47.90;;;;;;5071269;28;20036;-78
2023/10/07 13:31:17;;;;;;;14.90;11.13;;;29.50;47.00;;;;;;5084473;28;20032;-80
2023/10/07 13:33:46;;;;;;;12.70;7.68;;;29.00;47.70;;;;;;5093776;28;20089;-83
2023/10/07 13:36:13;;;;;;;18.23;11.27;;;28.90;46.80;;;;;;5080044;28;20044;-77
2023/10/07 13:38:41;;;;;;;23.10;16.23;;;29.00;47.00;;;;;;5088502;28;20035;-85
2023/10/07 13:41:08;;;;;;;13.30;8.23;;;29.20;47.80;;;;;;5091848;28;20499;-79
2023/10/07 13:43:41;;;;;;;15.63;7.20;;;29.40;46.50;;;;;;5088818;28;20124;-81
2023/10/07 13:46:12;;;;;;;10.30;6.72;;;30.00;46.10;;;;;;5074957;28;20111;-80
2023/10/07 13:48:43;;;;;;;10.30;6.60;;;31.30;44.20;;;;;;5087894;28;20497;-76
2023/10/07 13:51:11;;;;;;;13.95;7.50;;;33.60;42.40;;;;;;5084764;28;20101;-81
2023/10/07 13:56:34;;;;;;;10.07;5.90;;;36.30;38.90;;;;;;5074846;28;20064;-81
2023/10/07 13:59:04;;;;;;;10.70;6.28;;;36.60;38.40;;;;;;5083395;28;20036;-82
2023/10/07 14:01:32;;;;;;;9.88;6.10;;;37.40;38.40;;;;;;5086691;28;20104;-84
2023/10/07 14:03:59;;;;;;;11.35;6.25;;;38.40;38.20;;;;;;5080928;28;20148;-87
2023/10/07 14:06:27;;;;;;;10.38;6.65;;;38.90;37.20;;;;;;5089175;28;20460;-84